Terminal Aerodrome Forecast
Issued by NWS

Home | Current Version | Previous Version | Text Only | Print | Product List | Glossary Off
Versions: 1 2 3 4 5 6 7 8 9 10 11 12 13 14 15 16

587
FTUS43 KMPX 221120
TAFRNH
TAF
KRNH 221120Z 2212/2312 05006KT 6SM BR BKN006 OVC010
     FM221700 03007KT P6SM SCT010 OVC020
     FM230000 04008KT P6SM VCSH OVC020
     FM230600 05006KT 4SM BR OVC010
      AMD NOT SKED=

USA.gov is the U.S. government's official web portal to all federal, state and local government web resources and services.